sensor_id;sensor_type;location;lat;lon;timestamp;P1;durP1;ratioP1;P2;durP2;ratioP2
70929;SDS011;58588;48.102;19.682;2023-02-01T00:02:30;9.40;;;2.55;;
70929;SDS011;58588;48.102;19.682;2023-02-01T00:05:34;10.48;;;3.13;;
70929;SDS011;58588;48.102;19.682;2023-02-01T00:08:36;7.73;;;2.23;;
70929;SDS011;58588;48.102;19.682;2023-02-01T00:11:38;10.85;;;2.78;;
70929;SDS011;58588;48.102;19.682;2023-02-01T00:14:40;9.52;;;2.92;;
70929;SDS011;58588;48.102;19.682;2023-02-01T00:17:42;9.75;;;2.40;;
70929;SDS011;58588;48.102;19.682;2023-02-01T00:20:46;9.73;;;2.28;;
70929;SDS011;58588;48.102;19.682;2023-02-01T00:23:48;10.80;;;2.90;;
70929;SDS011;58588;48.102;19.682;2023-02-01T00:26:50;8.60;;;2.53;;
70929;SDS011;58588;48.102;19.682;2023-02-01T00:29:53;7.88;;;2.25;;
70929;SDS011;58588;48.102;19.682;2023-02-01T00:32:56;8.52;;;2.58;;
70929;SDS011;58588;48.102;19.682;2023-02-01T00:36:02;9.73;;;2.60;;
70929;SDS011;58588;48.102;19.682;2023-02-01T00:39:05;9.37;;;3.00;;
70929;SDS011;58588;48.102;19.682;2023-02-01T00:42:07;8.85;;;3.00;;
70929;SDS011;58588;48.102;19.682;2023-02-01T00:45:10;8.75;;;2.78;;
70929;SDS011;58588;48.102;19.682;2023-02-01T00:48:12;17.83;;;2.97;;
70929;SDS011;58588;48.102;19.682;2023-02-01T00:51:16;7.22;;;2.47;;
70929;SDS011;58588;48.102;19.682;2023-02-01T00:54:19;10.07;;;2.43;;
70929;SDS011;58588;48.102;19.682;2023-02-01T00:57:21;9.68;;;2.38;;
70929;SDS011;58588;48.102;19.682;2023-02-01T01:00:24;11.82;;;2.88;;
70929;SDS011;58588;48.102;19.682;2023-02-01T01:03:26;12.38;;;2.70;;
70929;SDS011;58588;48.102;19.682;2023-02-01T01:06:32;10.25;;;2.83;;
70929;SDS011;58588;48.102;19.682;2023-02-01T01:09:35;7.97;;;2.40;;
70929;SDS011;58588;48.102;19.682;2023-02-01T01:12:37;6.72;;;2.30;;
70929;SDS011;58588;48.102;19.682;2023-02-01T01:15:39;8.70;;;2.63;;
70929;SDS011;58588;48.102;19.682;2023-02-01T01:18:41;9.85;;;2.50;;
70929;SDS011;58588;48.102;19.682;2023-02-01T01:21:45;9.65;;;2.75;;
70929;SDS011;58588;48.102;19.682;2023-02-01T01:24:47;12.33;;;2.70;;
70929;SDS011;58588;48.102;19.682;2023-02-01T01:27:49;8.82;;;2.80;;
70929;SDS011;58588;48.102;19.682;2023-02-01T01:30:51;9.60;;;2.65;;
70929;SDS011;58588;48.102;19.682;2023-02-01T01:33:54;12.68;;;2.50;;
70929;SDS011;58588;48.102;19.682;2023-02-01T01:36:58;9.65;;;3.65;;
70929;SDS011;58588;48.102;19.682;2023-02-01T01:40:00;10.87;;;2.80;;
70929;SDS011;58588;48.102;19.682;2023-02-01T01:43:03;10.00;;;2.70;;
70929;SDS011;58588;48.102;19.682;2023-02-01T01:46:10;7.88;;;2.60;;
70929;SDS011;58588;48.102;19.682;2023-02-01T01:49:18;7.47;;;2.58;;
70929;SDS011;58588;48.102;19.682;2023-02-01T01:52:24;9.57;;;2.35;;
70929;SDS011;58588;48.102;19.682;2023-02-01T01:55:27;7.23;;;2.33;;
70929;SDS011;58588;48.102;19.682;2023-02-01T01:58:33;9.98;;;2.70;;
70929;SDS011;58588;48.102;19.682;2023-02-01T02:01:35;8.57;;;2.22;;
70929;SDS011;58588;48.102;19.682;2023-02-01T02:04:37;8.98;;;2.38;;
70929;SDS011;58588;48.102;19.682;2023-02-01T02:07:43;7.60;;;2.38;;
70929;SDS011;58588;48.102;19.682;2023-02-01T02:10:48;9.03;;;2.27;;
70929;SDS011;58588;48.102;19.682;2023-02-01T02:14:02;8.90;;;2.30;;
70929;SDS011;58588;48.102;19.682;2023-02-01T02:17:08;7.53;;;2.00;;
70929;SDS011;58588;48.102;19.682;2023-02-01T02:20:39;10.23;;;2.00;;
70929;SDS011;58588;48.102;19.682;2023-02-01T02:27:30;6.50;;;1.90;;
70929;SDS011;58588;48.102;19.682;2023-02-01T02:30:53;7.13;;;2.33;;
70929;SDS011;58588;48.102;19.682;2023-02-01T02:34:24;7.30;;;2.00;;
70929;SDS011;58588;48.102;19.682;2023-02-01T02:37:31;8.50;;;2.10;;
70929;SDS011;58588;48.102;19.682;2023-02-01T02:40:41;10.85;;;1.83;;
70929;SDS011;58588;48.102;19.682;2023-02-01T02:43:49;6.97;;;1.83;;
70929;SDS011;58588;48.102;19.682;2023-02-01T02:47:21;7.70;;;2.00;;
70929;SDS011;58588;48.102;19.682;2023-02-01T02:50:32;7.10;;;1.98;;
70929;SDS011;58588;48.102;19.682;2023-02-01T02:53:56;6.97;;;2.00;;
70929;SDS011;58588;48.102;19.682;2023-02-01T02:57:20;7.57;;;1.70;;
70929;SDS011;58588;48.102;19.682;2023-02-01T03:00:42;9.13;;;1.87;;
70929;SDS011;58588;48.102;19.682;2023-02-01T03:04:03;7.18;;;1.98;;
70929;SDS011;58588;48.102;19.682;2023-02-01T03:07:14;6.95;;;2.10;;
70929;SDS011;58588;48.102;19.682;2023-02-01T03:10:45;6.60;;;2.05;;
70929;SDS011;58588;48.102;19.682;2023-02-01T03:13:51;7.53;;;2.00;;
70929;SDS011;58588;48.102;19.682;2023-02-01T03:16:55;7.57;;;2.50;;
70929;SDS011;58588;48.102;19.682;2023-02-01T03:20:05;7.38;;;2.10;;
70929;SDS011;58588;48.102;19.682;2023-02-01T03:23:12;6.90;;;2.03;;
70929;SDS011;58588;48.102;19.682;2023-02-01T03:26:18;7.10;;;2.13;;
70929;SDS011;58588;48.102;19.682;2023-02-01T03:29:24;6.88;;;2.17;;
70929;SDS011;58588;48.102;19.682;2023-02-01T03:32:31;6.63;;;1.93;;
70929;SDS011;58588;48.102;19.682;2023-02-01T03:35:56;7.97;;;2.35;;
70929;SDS011;58588;48.102;19.682;2023-02-01T03:39:05;7.50;;;2.10;;
70929;SDS011;58588;48.102;19.682;2023-02-01T03:42:13;9.07;;;2.75;;
70929;SDS011;58588;48.102;19.682;2023-02-01T03:45:20;12.95;;;6.70;;
70929;SDS011;58588;48.102;19.682;2023-02-01T03:48:27;11.50;;;3.90;;
70929;SDS011;58588;48.102;19.682;2023-02-01T03:51:31;7.72;;;2.75;;
70929;SDS011;58588;48.102;19.682;2023-02-01T03:54:36;7.88;;;2.50;;
70929;SDS011;58588;48.102;19.682;2023-02-01T03:57:41;9.05;;;2.60;;
70929;SDS011;58588;48.102;19.682;2023-02-01T04:00:50;7.68;;;2.70;;
70929;SDS011;58588;48.102;19.682;2023-02-01T04:03:54;7.13;;;2.40;;
70929;SDS011;58588;48.102;19.682;2023-02-01T04:06:56;10.57;;;2.92;;
70929;SDS011;58588;48.102;19.682;2023-02-01T04:09:59;8.77;;;2.35;;
70929;SDS011;58588;48.102;19.682;2023-02-01T04:13:03;12.52;;;2.90;;
70929;SDS011;58588;48.102;19.682;2023-02-01T04:16:06;8.55;;;2.60;;
70929;SDS011;58588;48.102;19.682;2023-02-01T04:19:08;8.37;;;2.63;;
70929;SDS011;58588;48.102;19.682;2023-02-01T04:22:10;8.68;;;2.90;;
70929;SDS011;58588;48.102;19.682;2023-02-01T04:25:13;12.00;;;3.80;;
70929;SDS011;58588;48.102;19.682;2023-02-01T04:28:17;8.57;;;3.08;;
70929;SDS011;58588;48.102;19.682;2023-02-01T04:31:19;6.32;;;2.15;;
70929;SDS011;58588;48.102;19.682;2023-02-01T04:34:25;8.63;;;3.00;;
70929;SDS011;58588;48.102;19.682;2023-02-01T04:37:27;7.53;;;2.67;;
70929;SDS011;58588;48.102;19.682;2023-02-01T04:40:31;9.68;;;3.28;;
70929;SDS011;58588;48.102;19.682;2023-02-01T04:43:33;13.73;;;5.00;;
70929;SDS011;58588;48.102;19.682;2023-02-01T04:46:35;24.40;;;8.80;;
70929;SDS011;58588;48.102;19.682;2023-02-01T04:49:37;15.73;;;5.00;;
70929;SDS011;58588;48.102;19.682;2023-02-01T04:52:39;16.85;;;6.10;;
70929;SDS011;58588;48.102;19.682;2023-02-01T04:55:43;12.18;;;4.30;;
70929;SDS011;58588;48.102;19.682;2023-02-01T04:58:45;21.70;;;6.95;;
70929;SDS011;58588;48.102;19.682;2023-02-01T05:01:47;11.57;;;4.38;;
70929;SDS011;58588;48.102;19.682;2023-02-01T05:04:49;17.63;;;6.10;;
70929;SDS011;58588;48.102;19.682;2023-02-01T05:07:54;20.52;;;7.93;;
70929;SDS011;58588;48.102;19.682;2023-02-01T05:10:58;21.75;;;7.80;;
70929;SDS011;58588;48.102;19.682;2023-02-01T05:14:02;17.52;;;5.55;;
70929;SDS011;58588;48.102;19.682;2023-02-01T05:17:03;14.98;;;5.57;;
70929;SDS011;58588;48.102;19.682;2023-02-01T05:20:06;11.57;;;4.47;;
70929;SDS011;58588;48.102;19.682;2023-02-01T05:23:08;9.32;;;2.90;;
70929;SDS011;58588;48.102;19.682;2023-02-01T05:26:12;11.40;;;4.03;;
70929;SDS011;58588;48.102;19.682;2023-02-01T05:29:14;18.40;;;7.00;;
70929;SDS011;58588;48.102;19.682;2023-02-01T05:32:17;14.25;;;5.53;;
70929;SDS011;58588;48.102;19.682;2023-02-01T05:35:19;22.70;;;8.20;;
70929;SDS011;58588;48.102;19.682;2023-02-01T05:38:22;15.95;;;5.40;;
70929;SDS011;58588;48.102;19.682;2023-02-01T05:41:25;18.48;;;7.53;;
70929;SDS011;58588;48.102;19.682;2023-02-01T05:44:27;13.07;;;5.15;;
70929;SDS011;58588;48.102;19.682;2023-02-01T05:47:29;17.65;;;6.57;;
70929;SDS011;58588;48.102;19.682;2023-02-01T05:50:31;20.07;;;8.07;;
70929;SDS011;58588;48.102;19.682;2023-02-01T05:53:33;15.95;;;5.75;;
70929;SDS011;58588;48.102;19.682;2023-02-01T05:56:36;15.15;;;5.82;;
70929;SDS011;58588;48.102;19.682;2023-02-01T05:59:40;16.77;;;5.85;;
70929;SDS011;58588;48.102;19.682;2023-02-01T06:02:44;17.02;;;7.18;;
70929;SDS011;58588;48.102;19.682;2023-02-01T06:05:47;23.93;;;10.20;;
70929;SDS011;58588;48.102;19.682;2023-02-01T06:08:49;218.18;;;58.63;;
70929;SDS011;58588;48.102;19.682;2023-02-01T06:11:52;100.80;;;35.10;;
70929;SDS011;58588;48.102;19.682;2023-02-01T06:14:54;43.40;;;16.45;;
70929;SDS011;58588;48.102;19.682;2023-02-01T06:17:56;32.38;;;13.63;;
70929;SDS011;58588;48.102;19.682;2023-02-01T06:20:59;21.90;;;8.90;;
70929;SDS011;58588;48.102;19.682;2023-02-01T06:24:01;16.95;;;6.57;;
70929;SDS011;58588;48.102;19.682;2023-02-01T06:27:04;22.52;;;9.32;;
70929;SDS011;58588;48.102;19.682;2023-02-01T06:30:07;16.48;;;6.45;;
70929;SDS011;58588;48.102;19.682;2023-02-01T06:33:10;11.20;;;5.22;;
70929;SDS011;58588;48.102;19.682;2023-02-01T06:36:12;11.43;;;4.10;;
70929;SDS011;58588;48.102;19.682;2023-02-01T06:39:16;10.52;;;3.13;;
70929;SDS011;58588;48.102;19.682;2023-02-01T06:42:19;9.77;;;2.58;;
70929;SDS011;58588;48.102;19.682;2023-02-01T06:45:21;25.67;;;13.90;;
70929;SDS011;58588;48.102;19.682;2023-02-01T06:48:23;15.43;;;6.68;;
70929;SDS011;58588;48.102;19.682;2023-02-01T06:51:26;25.67;;;11.67;;
70929;SDS011;58588;48.102;19.682;2023-02-01T06:54:29;21.45;;;9.85;;
70929;SDS011;58588;48.102;19.682;2023-02-01T06:57:33;23.13;;;9.38;;
70929;SDS011;58588;48.102;19.682;2023-02-01T07:00:35;14.15;;;5.32;;
70929;SDS011;58588;48.102;19.682;2023-02-01T07:03:38;10.70;;;3.63;;
70929;SDS011;58588;48.102;19.682;2023-02-01T07:06:41;7.33;;;2.63;;
70929;SDS011;58588;48.102;19.682;2023-02-01T07:09:43;8.65;;;3.10;;
70929;SDS011;58588;48.102;19.682;2023-02-01T07:12:46;7.90;;;2.75;;
70929;SDS011;58588;48.102;19.682;2023-02-01T07:15:48;13.50;;;2.75;;
70929;SDS011;58588;48.102;19.682;2023-02-01T07:18:50;11.57;;;3.92;;
70929;SDS011;58588;48.102;19.682;2023-02-01T07:21:53;12.20;;;4.40;;
70929;SDS011;58588;48.102;19.682;2023-02-01T07:24:55;10.60;;;4.70;;
70929;SDS011;58588;48.102;19.682;2023-02-01T07:27:58;10.57;;;3.53;;
70929;SDS011;58588;48.102;19.682;2023-02-01T07:31:03;14.05;;;4.40;;
70929;SDS011;58588;48.102;19.682;2023-02-01T07:34:06;18.10;;;8.65;;
70929;SDS011;58588;48.102;19.682;2023-02-01T07:37:08;17.77;;;7.63;;
70929;SDS011;58588;48.102;19.682;2023-02-01T07:40:11;18.17;;;8.10;;
70929;SDS011;58588;48.102;19.682;2023-02-01T07:43:15;15.32;;;5.97;;
70929;SDS011;58588;48.102;19.682;2023-02-01T07:46:17;13.73;;;4.88;;
70929;SDS011;58588;48.102;19.682;2023-02-01T07:49:19;13.23;;;4.72;;
70929;SDS011;58588;48.102;19.682;2023-02-01T07:52:21;12.83;;;5.80;;
70929;SDS011;58588;48.102;19.682;2023-02-01T07:55:23;12.27;;;4.85;;
70929;SDS011;58588;48.102;19.682;2023-02-01T07:58:27;13.48;;;4.70;;
70929;SDS011;58588;48.102;19.682;2023-02-01T08:01:30;12.32;;;4.78;;
70929;SDS011;58588;48.102;19.682;2023-02-01T08:04:32;11.57;;;3.78;;
70929;SDS011;58588;48.102;19.682;2023-02-01T08:07:34;5.73;;;1.17;;
70929;SDS011;58588;48.102;19.682;2023-02-01T08:10:36;5.15;;;1.00;;
70929;SDS011;58588;48.102;19.682;2023-02-01T08:13:39;5.13;;;1.30;;
70929;SDS011;58588;48.102;19.682;2023-02-01T08:16:41;5.25;;;1.15;;
70929;SDS011;58588;48.102;19.682;2023-02-01T08:19:43;5.60;;;1.00;;
70929;SDS011;58588;48.102;19.682;2023-02-01T08:22:45;4.23;;;0.90;;
70929;SDS011;58588;48.102;19.682;2023-02-01T08:25:47;5.50;;;0.98;;
70929;SDS011;58588;48.102;19.682;2023-02-01T08:28:52;4.50;;;0.90;;
70929;SDS011;58588;48.102;19.682;2023-02-01T08:31:55;7.57;;;1.08;;
70929;SDS011;58588;48.102;19.682;2023-02-01T08:34:57;6.43;;;1.30;;
70929;SDS011;58588;48.102;19.682;2023-02-01T08:37:59;5.47;;;1.10;;
70929;SDS011;58588;48.102;19.682;2023-02-01T08:41:03;5.68;;;1.00;;
70929;SDS011;58588;48.102;19.682;2023-02-01T08:44:08;6.55;;;0.90;;
70929;SDS011;58588;48.102;19.682;2023-02-01T08:47:10;5.32;;;1.00;;
70929;SDS011;58588;48.102;19.682;2023-02-01T08:50:12;4.75;;;1.10;;
70929;SDS011;58588;48.102;19.682;2023-02-01T08:53:15;6.53;;;1.00;;
70929;SDS011;58588;48.102;19.682;2023-02-01T08:56:17;4.20;;;0.90;;
70929;SDS011;58588;48.102;19.682;2023-02-01T08:59:22;7.68;;;1.27;;
70929;SDS011;58588;48.102;19.682;2023-02-01T09:02:24;9.02;;;1.50;;
70929;SDS011;58588;48.102;19.682;2023-02-01T09:05:26;4.30;;;0.90;;
70929;SDS011;58588;48.102;19.682;2023-02-01T09:08:28;4.27;;;0.70;;
70929;SDS011;58588;48.102;19.682;2023-02-01T09:11:30;4.85;;;1.10;;
70929;SDS011;58588;48.102;19.682;2023-02-01T09:14:34;6.40;;;1.58;;
70929;SDS011;58588;48.102;19.682;2023-02-01T09:17:36;4.93;;;1.25;;
70929;SDS011;58588;48.102;19.682;2023-02-01T09:20:38;5.63;;;1.13;;
70929;SDS011;58588;48.102;19.682;2023-02-01T09:23:40;6.50;;;1.20;;
70929;SDS011;58588;48.102;19.682;2023-02-01T09:26:42;6.03;;;1.33;;
70929;SDS011;58588;48.102;19.682;2023-02-01T09:29:46;5.68;;;1.33;;
70929;SDS011;58588;48.102;19.682;2023-02-01T09:32:52;5.32;;;1.60;;
70929;SDS011;58588;48.102;19.682;2023-02-01T09:35:57;7.32;;;1.52;;
70929;SDS011;58588;48.102;19.682;2023-02-01T09:39:00;7.10;;;1.60;;
70929;SDS011;58588;48.102;19.682;2023-02-01T09:42:06;8.80;;;1.90;;
70929;SDS011;58588;48.102;19.682;2023-02-01T09:45:20;4.55;;;1.02;;
70929;SDS011;58588;48.102;19.682;2023-02-01T09:48:27;5.78;;;1.42;;
70929;SDS011;58588;48.102;19.682;2023-02-01T09:51:33;6.25;;;1.48;;
70929;SDS011;58588;48.102;19.682;2023-02-01T09:54:40;8.30;;;1.53;;
70929;SDS011;58588;48.102;19.682;2023-02-01T09:57:45;4.07;;;0.88;;
70929;SDS011;58588;48.102;19.682;2023-02-01T10:00:53;7.05;;;1.65;;
70929;SDS011;58588;48.102;19.682;2023-02-01T10:04:00;6.65;;;1.50;;
70929;SDS011;58588;48.102;19.682;2023-02-01T10:07:10;7.00;;;1.35;;
70929;SDS011;58588;48.102;19.682;2023-02-01T10:10:21;6.97;;;1.50;;
70929;SDS011;58588;48.102;19.682;2023-02-01T10:13:33;8.30;;;1.73;;
70929;SDS011;58588;48.102;19.682;2023-02-01T10:16:47;9.32;;;2.20;;
70929;SDS011;58588;48.102;19.682;2023-02-01T10:20:01;9.30;;;2.70;;
70929;SDS011;58588;48.102;19.682;2023-02-01T10:23:16;6.32;;;1.70;;
70929;SDS011;58588;48.102;19.682;2023-02-01T10:26:35;7.27;;;2.37;;
70929;SDS011;58588;48.102;19.682;2023-02-01T10:29:43;5.72;;;1.48;;
70929;SDS011;58588;48.102;19.682;2023-02-01T10:32:48;6.07;;;1.63;;
70929;SDS011;58588;48.102;19.682;2023-02-01T10:35:55;5.43;;;1.67;;
70929;SDS011;58588;48.102;19.682;2023-02-01T10:39:04;6.53;;;2.08;;
70929;SDS011;58588;48.102;19.682;2023-02-01T10:42:08;6.33;;;2.00;;
70929;SDS011;58588;48.102;19.682;2023-02-01T10:45:11;6.80;;;2.00;;
70929;SDS011;58588;48.102;19.682;2023-02-01T10:48:17;7.53;;;2.25;;
70929;SDS011;58588;48.102;19.682;2023-02-01T10:51:21;6.85;;;1.70;;
70929;SDS011;58588;48.102;19.682;2023-02-01T10:54:31;5.63;;;1.52;;
70929;SDS011;58588;48.102;19.682;2023-02-01T10:57:35;5.80;;;1.37;;
70929;SDS011;58588;48.102;19.682;2023-02-01T11:00:42;7.68;;;1.80;;
70929;SDS011;58588;48.102;19.682;2023-02-01T11:03:52;6.20;;;1.70;;
70929;SDS011;58588;48.102;19.682;2023-02-01T11:07:04;5.30;;;1.40;;
70929;SDS011;58588;48.102;19.682;2023-02-01T11:10:10;5.60;;;1.65;;
70929;SDS011;58588;48.102;19.682;2023-02-01T11:13:37;6.70;;;1.60;;
70929;SDS011;58588;48.102;19.682;2023-02-01T11:16:43;5.85;;;1.75;;
70929;SDS011;58588;48.102;19.682;2023-02-01T11:19:55;5.85;;;1.60;;
70929;SDS011;58588;48.102;19.682;2023-02-01T11:22:59;5.45;;;1.40;;
70929;SDS011;58588;48.102;19.682;2023-02-01T11:26:09;5.22;;;1.08;;
70929;SDS011;58588;48.102;19.682;2023-02-01T11:29:14;5.97;;;1.27;;
70929;SDS011;58588;48.102;19.682;2023-02-01T11:32:22;6.60;;;1.50;;
70929;SDS011;58588;48.102;19.682;2023-02-01T11:35:27;6.00;;;1.58;;
70929;SDS011;58588;48.102;19.682;2023-02-01T11:38:31;6.57;;;1.40;;
70929;SDS011;58588;48.102;19.682;2023-02-01T11:41:35;5.20;;;1.15;;
70929;SDS011;58588;48.102;19.682;2023-02-01T11:44:43;6.97;;;1.40;;
70929;SDS011;58588;48.102;19.682;2023-02-01T11:47:46;6.25;;;1.20;;
70929;SDS011;58588;48.102;19.682;2023-02-01T11:50:59;6.35;;;1.23;;
70929;SDS011;58588;48.102;19.682;2023-02-01T11:54:13;6.38;;;1.15;;
70929;SDS011;58588;48.102;19.682;2023-02-01T11:57:27;6.00;;;1.10;;
70929;SDS011;58588;48.102;19.682;2023-02-01T12:00:44;7.50;;;1.43;;
70929;SDS011;58588;48.102;19.682;2023-02-01T12:04:10;5.00;;;1.23;;
70929;SDS011;58588;48.102;19.682;2023-02-01T12:07:50;5.45;;;1.50;;
70929;SDS011;58588;48.102;19.682;2023-02-01T12:11:08;6.53;;;1.50;;
70929;SDS011;58588;48.102;19.682;2023-02-01T12:18:11;6.93;;;1.20;;
70929;SDS011;58588;48.102;19.682;2023-02-01T12:21:42;4.40;;;0.95;;
70929;SDS011;58588;48.102;19.682;2023-02-01T12:24:56;5.53;;;1.02;;
70929;SDS011;58588;48.102;19.682;2023-02-01T12:28:28;6.20;;;1.50;;
70929;SDS011;58588;48.102;19.682;2023-02-01T12:31:44;4.78;;;1.17;;
70929;SDS011;58588;48.102;19.682;2023-02-01T12:34:59;5.47;;;1.10;;
70929;SDS011;58588;48.102;19.682;2023-02-01T12:38:17;4.50;;;0.90;;
70929;SDS011;58588;48.102;19.682;2023-02-01T12:41:44;5.95;;;1.00;;
70929;SDS011;58588;48.102;19.682;2023-02-01T12:44:55;4.28;;;0.77;;
70929;SDS011;58588;48.102;19.682;2023-02-01T12:48:03;4.18;;;1.00;;
70929;SDS011;58588;48.102;19.682;2023-02-01T12:51:26;5.60;;;0.90;;
70929;SDS011;58588;48.102;19.682;2023-02-01T12:54:32;4.82;;;0.85;;
70929;SDS011;58588;48.102;19.682;2023-02-01T12:57:40;5.93;;;1.00;;
70929;SDS011;58588;48.102;19.682;2023-02-01T13:00:47;6.88;;;1.20;;
70929;SDS011;58588;48.102;19.682;2023-02-01T13:03:54;3.65;;;0.60;;
70929;SDS011;58588;48.102;19.682;2023-02-01T13:07:07;6.33;;;1.10;;
70929;SDS011;58588;48.102;19.682;2023-02-01T13:10:15;4.78;;;0.95;;
70929;SDS011;58588;48.102;19.682;2023-02-01T13:13:22;6.35;;;1.15;;
70929;SDS011;58588;48.102;19.682;2023-02-01T13:16:30;5.43;;;1.35;;
70929;SDS011;58588;48.102;19.682;2023-02-01T13:19:37;3.88;;;0.70;;
70929;SDS011;58588;48.102;19.682;2023-02-01T13:22:45;4.63;;;1.00;;
70929;SDS011;58588;48.102;19.682;2023-02-01T13:25:51;4.47;;;0.73;;
70929;SDS011;58588;48.102;19.682;2023-02-01T13:28:57;3.97;;;0.90;;
70929;SDS011;58588;48.102;19.682;2023-02-01T13:32:12;4.20;;;0.82;;
70929;SDS011;58588;48.102;19.682;2023-02-01T13:35:37;6.20;;;0.85;;
70929;SDS011;58588;48.102;19.682;2023-02-01T13:39:02;3.67;;;0.80;;
70929;SDS011;58588;48.102;19.682;2023-02-01T13:42:21;3.75;;;0.70;;
70929;SDS011;58588;48.102;19.682;2023-02-01T13:45:27;5.65;;;0.95;;
70929;SDS011;58588;48.102;19.682;2023-02-01T13:48:34;5.65;;;1.40;;
70929;SDS011;58588;48.102;19.682;2023-02-01T13:51:42;6.28;;;1.50;;
70929;SDS011;58588;48.102;19.682;2023-02-01T13:54:46;6.17;;;1.60;;
70929;SDS011;58588;48.102;19.682;2023-02-01T13:57:49;6.22;;;1.77;;
70929;SDS011;58588;48.102;19.682;2023-02-01T14:01:30;5.40;;;1.45;;
70929;SDS011;58588;48.102;19.682;2023-02-01T14:04:48;5.50;;;1.17;;
70929;SDS011;58588;48.102;19.682;2023-02-01T14:14:38;5.35;;;1.30;;
70929;SDS011;58588;48.102;19.682;2023-02-01T14:17:42;4.53;;;1.10;;
70929;SDS011;58588;48.102;19.682;2023-02-01T14:20:45;5.68;;;1.50;;
70929;SDS011;58588;48.102;19.682;2023-02-01T14:23:55;5.50;;;1.45;;
70929;SDS011;58588;48.102;19.682;2023-02-01T14:26:59;5.50;;;1.33;;
70929;SDS011;58588;48.102;19.682;2023-02-01T14:30:05;7.47;;;2.90;;
70929;SDS011;58588;48.102;19.682;2023-02-01T14:33:18;6.68;;;2.17;;
70929;SDS011;58588;48.102;19.682;2023-02-01T14:36:23;9.90;;;2.90;;
70929;SDS011;58588;48.102;19.682;2023-02-01T14:39:28;21.63;;;6.18;;
70929;SDS011;58588;48.102;19.682;2023-02-01T14:42:35;8.07;;;2.77;;
70929;SDS011;58588;48.102;19.682;2023-02-01T14:45:47;17.33;;;5.53;;
70929;SDS011;58588;48.102;19.682;2023-02-01T14:48:53;4.95;;;1.20;;
70929;SDS011;58588;48.102;19.682;2023-02-01T14:51:56;4.05;;;0.90;;
70929;SDS011;58588;48.102;19.682;2023-02-01T14:55:00;4.40;;;0.95;;
70929;SDS011;58588;48.102;19.682;2023-02-01T14:58:06;5.10;;;0.77;;
70929;SDS011;58588;48.102;19.682;2023-02-01T15:01:21;3.00;;;0.63;;
70929;SDS011;58588;48.102;19.682;2023-02-01T15:04:26;4.75;;;0.82;;
70929;SDS011;58588;48.102;19.682;2023-02-01T15:07:29;4.03;;;0.77;;
70929;SDS011;58588;48.102;19.682;2023-02-01T15:10:31;3.75;;;0.80;;
70929;SDS011;58588;48.102;19.682;2023-02-01T15:13:47;3.63;;;0.70;;
70929;SDS011;58588;48.102;19.682;2023-02-01T15:16:50;3.70;;;0.70;;
70929;SDS011;58588;48.102;19.682;2023-02-01T15:19:56;3.90;;;0.80;;
70929;SDS011;58588;48.102;19.682;2023-02-01T15:23:00;3.90;;;0.90;;
70929;SDS011;58588;48.102;19.682;2023-02-01T15:26:04;5.18;;;0.80;;
70929;SDS011;58588;48.102;19.682;2023-02-01T15:29:09;3.93;;;0.83;;
70929;SDS011;58588;48.102;19.682;2023-02-01T15:32:27;5.00;;;0.90;;
70929;SDS011;58588;48.102;19.682;2023-02-01T15:35:37;5.38;;;0.98;;
70929;SDS011;58588;48.102;19.682;2023-02-01T15:38:43;5.68;;;1.00;;
70929;SDS011;58588;48.102;19.682;2023-02-01T15:41:49;4.82;;;1.25;;
70929;SDS011;58588;48.102;19.682;2023-02-01T15:44:53;5.87;;;1.50;;
70929;SDS011;58588;48.102;19.682;2023-02-01T15:47:56;5.70;;;1.17;;
70929;SDS011;58588;48.102;19.682;2023-02-01T15:51:01;4.28;;;0.77;;
70929;SDS011;58588;48.102;19.682;2023-02-01T15:54:05;6.10;;;1.42;;
70929;SDS011;58588;48.102;19.682;2023-02-01T15:57:09;6.13;;;1.50;;
70929;SDS011;58588;48.102;19.682;2023-02-01T16:00:18;8.37;;;1.20;;
70929;SDS011;58588;48.102;19.682;2023-02-01T16:03:25;6.07;;;1.30;;
70929;SDS011;58588;48.102;19.682;2023-02-01T16:06:46;6.65;;;1.50;;
70929;SDS011;58588;48.102;19.682;2023-02-01T16:09:51;5.82;;;1.42;;
70929;SDS011;58588;48.102;19.682;2023-02-01T16:12:55;7.45;;;1.48;;
70929;SDS011;58588;48.102;19.682;2023-02-01T16:16:00;5.60;;;1.40;;
70929;SDS011;58588;48.102;19.682;2023-02-01T16:19:02;5.35;;;1.40;;
70929;SDS011;58588;48.102;19.682;2023-02-01T16:22:05;6.55;;;1.40;;
70929;SDS011;58588;48.102;19.682;2023-02-01T16:25:07;6.07;;;1.35;;
70929;SDS011;58588;48.102;19.682;2023-02-01T16:28:10;5.70;;;1.30;;
70929;SDS011;58588;48.102;19.682;2023-02-01T16:31:53;6.63;;;1.60;;
70929;SDS011;58588;48.102;19.682;2023-02-01T16:34:44;6.25;;;1.60;;
70929;SDS011;58588;48.102;19.682;2023-02-01T16:37:48;6.97;;;2.40;;
70929;SDS011;58588;48.102;19.682;2023-02-01T16:40:50;8.13;;;2.00;;
70929;SDS011;58588;48.102;19.682;2023-02-01T16:43:53;6.82;;;1.75;;
70929;SDS011;58588;48.102;19.682;2023-02-01T16:46:56;6.67;;;1.97;;
70929;SDS011;58588;48.102;19.682;2023-02-01T16:49:58;6.28;;;2.05;;
70929;SDS011;58588;48.102;19.682;2023-02-01T16:53:10;9.27;;;2.50;;
70929;SDS011;58588;48.102;19.682;2023-02-01T16:56:16;7.10;;;2.35;;
70929;SDS011;58588;48.102;19.682;2023-02-01T16:59:21;8.15;;;2.75;;
70929;SDS011;58588;48.102;19.682;2023-02-01T17:02:23;11.60;;;3.60;;
70929;SDS011;58588;48.102;19.682;2023-02-01T17:05:25;8.65;;;2.17;;
70929;SDS011;58588;48.102;19.682;2023-02-01T17:08:29;6.82;;;1.92;;
70929;SDS011;58588;48.102;19.682;2023-02-01T17:11:34;6.78;;;1.65;;
70929;SDS011;58588;48.102;19.682;2023-02-01T17:14:38;7.75;;;2.20;;
70929;SDS011;58588;48.102;19.682;2023-02-01T17:17:41;8.33;;;2.77;;
70929;SDS011;58588;48.102;19.682;2023-02-01T17:20:44;11.30;;;2.50;;
70929;SDS011;58588;48.102;19.682;2023-02-01T17:23:49;9.27;;;2.75;;
70929;SDS011;58588;48.102;19.682;2023-02-01T17:26:52;11.45;;;2.33;;
70929;SDS011;58588;48.102;19.682;2023-02-01T17:29:55;7.72;;;2.35;;
70929;SDS011;58588;48.102;19.682;2023-02-01T17:32:57;9.30;;;3.27;;
70929;SDS011;58588;48.102;19.682;2023-02-01T17:35:59;12.52;;;3.38;;
70929;SDS011;58588;48.102;19.682;2023-02-01T17:39:02;15.60;;;4.10;;
70929;SDS011;58588;48.102;19.682;2023-02-01T17:42:04;8.82;;;2.83;;
70929;SDS011;58588;48.102;19.682;2023-02-01T17:45:15;9.52;;;2.15;;
70929;SDS011;58588;48.102;19.682;2023-02-01T17:48:22;7.57;;;2.20;;
70929;SDS011;58588;48.102;19.682;2023-02-01T17:51:25;6.70;;;2.35;;
70929;SDS011;58588;48.102;19.682;2023-02-01T17:54:30;6.57;;;2.10;;
70929;SDS011;58588;48.102;19.682;2023-02-01T17:57:32;7.20;;;2.08;;
70929;SDS011;58588;48.102;19.682;2023-02-01T18:00:34;9.70;;;3.30;;
70929;SDS011;58588;48.102;19.682;2023-02-01T18:03:36;26.53;;;10.43;;
70929;SDS011;58588;48.102;19.682;2023-02-01T18:06:38;12.00;;;5.13;;
70929;SDS011;58588;48.102;19.682;2023-02-01T18:09:42;28.90;;;10.80;;
70929;SDS011;58588;48.102;19.682;2023-02-01T18:12:45;24.50;;;14.13;;
70929;SDS011;58588;48.102;19.682;2023-02-01T18:15:47;27.42;;;14.48;;
70929;SDS011;58588;48.102;19.682;2023-02-01T18:18:49;14.53;;;6.40;;
70929;SDS011;58588;48.102;19.682;2023-02-01T18:25:28;12.35;;;4.50;;
70929;SDS011;58588;48.102;19.682;2023-02-01T18:28:36;23.88;;;8.35;;
70929;SDS011;58588;48.102;19.682;2023-02-01T18:31:39;25.85;;;9.02;;
70929;SDS011;58588;48.102;19.682;2023-02-01T18:34:46;15.87;;;6.30;;
70929;SDS011;58588;48.102;19.682;2023-02-01T18:37:48;9.30;;;3.22;;
70929;SDS011;58588;48.102;19.682;2023-02-01T18:40:54;9.07;;;2.95;;